sensor_id;sensor_type;location;lat;lon;timestamp;P1;durP1;ratioP1;P2;durP2;ratioP2
19589;SDS011;12231;42.782;23.388;2022-08-25T00:00:16;5.97;;;4.60;;
19589;SDS011;12231;42.782;23.388;2022-08-25T00:02:42;8.80;;;4.47;;
19589;SDS011;12231;42.782;23.388;2022-08-25T00:05:08;7.88;;;4.30;;
19589;SDS011;12231;42.782;23.388;2022-08-25T00:07:33;5.72;;;4.10;;
19589;SDS011;12231;42.782;23.388;2022-08-25T00:09:59;8.57;;;4.88;;
19589;SDS011;12231;42.782;23.388;2022-08-25T00:12:24;7.45;;;4.82;;
19589;SDS011;12231;42.782;23.388;2022-08-25T00:14:50;8.35;;;4.35;;
19589;SDS011;12231;42.782;23.388;2022-08-25T00:17:15;7.13;;;4.72;;
19589;SDS011;12231;42.782;23.388;2022-08-25T00:19:41;9.73;;;4.38;;
19589;SDS011;12231;42.782;23.388;2022-08-25T00:22:07;7.50;;;5.05;;
19589;SDS011;12231;42.782;23.388;2022-08-25T00:24:32;6.78;;;4.95;;
19589;SDS011;12231;42.782;23.388;2022-08-25T00:26:58;7.70;;;4.25;;
19589;SDS011;12231;42.782;23.388;2022-08-25T00:29:26;5.38;;;4.57;;
19589;SDS011;12231;42.782;23.388;2022-08-25T00:31:53;6.95;;;4.45;;
19589;SDS011;12231;42.782;23.388;2022-08-25T00:34:21;5.63;;;3.70;;
19589;SDS011;12231;42.782;23.388;2022-08-25T00:36:50;6.90;;;4.90;;
19589;SDS011;12231;42.782;23.388;2022-08-25T00:39:16;6.03;;;4.45;;
19589;SDS011;12231;42.782;23.388;2022-08-25T00:41:45;5.85;;;4.47;;
19589;SDS011;12231;42.782;23.388;2022-08-25T00:44:13;7.63;;;4.70;;
19589;SDS011;12231;42.782;23.388;2022-08-25T00:46:44;5.47;;;4.63;;
19589;SDS011;12231;42.782;23.388;2022-08-25T00:51:47;8.18;;;4.82;;
19589;SDS011;12231;42.782;23.388;2022-08-25T00:54:17;6.70;;;4.90;;
19589;SDS011;12231;42.782;23.388;2022-08-25T00:56:46;7.88;;;4.55;;
19589;SDS011;12231;42.782;23.388;2022-08-25T00:59:12;5.38;;;4.50;;
19589;SDS011;12231;42.782;23.388;2022-08-25T01:01:39;6.00;;;4.40;;
19589;SDS011;12231;42.782;23.388;2022-08-25T01:04:05;9.93;;;4.90;;
19589;SDS011;12231;42.782;23.388;2022-08-25T01:06:31;6.63;;;5.10;;
19589;SDS011;12231;42.782;23.388;2022-08-25T01:09:00;8.77;;;5.22;;
19589;SDS011;12231;42.782;23.388;2022-08-25T01:11:27;6.50;;;5.10;;
19589;SDS011;12231;42.782;23.388;2022-08-25T01:13:53;8.50;;;5.25;;
19589;SDS011;12231;42.782;23.388;2022-08-25T01:16:21;8.55;;;5.28;;
19589;SDS011;12231;42.782;23.388;2022-08-25T01:18:51;13.23;;;7.28;;
19589;SDS011;12231;42.782;23.388;2022-08-25T01:21:19;9.93;;;6.00;;
19589;SDS011;12231;42.782;23.388;2022-08-25T01:23:46;6.20;;;4.57;;
19589;SDS011;12231;42.782;23.388;2022-08-25T01:26:15;7.38;;;5.20;;
19589;SDS011;12231;42.782;23.388;2022-08-25T01:28:46;6.60;;;5.03;;
19589;SDS011;12231;42.782;23.388;2022-08-25T01:31:32;8.13;;;5.60;;
19589;SDS011;12231;42.782;23.388;2022-08-25T01:33:59;9.57;;;5.72;;
19589;SDS011;12231;42.782;23.388;2022-08-25T01:36:25;6.72;;;4.85;;
19589;SDS011;12231;42.782;23.388;2022-08-25T01:38:52;7.47;;;5.32;;
19589;SDS011;12231;42.782;23.388;2022-08-25T01:43:59;7.60;;;4.63;;
19589;SDS011;12231;42.782;23.388;2022-08-25T01:46:26;9.95;;;4.72;;
19589;SDS011;12231;42.782;23.388;2022-08-25T01:48:52;7.82;;;4.40;;
19589;SDS011;12231;42.782;23.388;2022-08-25T01:51:22;8.65;;;5.47;;
19589;SDS011;12231;42.782;23.388;2022-08-25T01:53:49;10.43;;;5.78;;
19589;SDS011;12231;42.782;23.388;2022-08-25T01:56:15;5.15;;;4.65;;
19589;SDS011;12231;42.782;23.388;2022-08-25T01:58:43;8.70;;;5.05;;
19589;SDS011;12231;42.782;23.388;2022-08-25T02:01:15;7.38;;;5.60;;
19589;SDS011;12231;42.782;23.388;2022-08-25T02:03:45;7.00;;;5.20;;
19589;SDS011;12231;42.782;23.388;2022-08-25T02:06:16;5.00;;;4.18;;
19589;SDS011;12231;42.782;23.388;2022-08-25T02:08:49;6.28;;;5.43;;
19589;SDS011;12231;42.782;23.388;2022-08-25T02:11:15;8.93;;;5.32;;
19589;SDS011;12231;42.782;23.388;2022-08-25T02:13:41;7.28;;;5.13;;
19589;SDS011;12231;42.782;23.388;2022-08-25T02:16:07;8.93;;;4.40;;
19589;SDS011;12231;42.782;23.388;2022-08-25T02:18:34;8.38;;;4.80;;
19589;SDS011;12231;42.782;23.388;2022-08-25T02:21:00;9.00;;;5.63;;
19589;SDS011;12231;42.782;23.388;2022-08-25T02:23:25;5.18;;;4.63;;
19589;SDS011;12231;42.782;23.388;2022-08-25T02:25:52;8.55;;;4.70;;
19589;SDS011;12231;42.782;23.388;2022-08-25T02:28:17;9.52;;;4.95;;
19589;SDS011;12231;42.782;23.388;2022-08-25T02:30:43;6.28;;;4.85;;
19589;SDS011;12231;42.782;23.388;2022-08-25T02:33:09;6.13;;;4.50;;
19589;SDS011;12231;42.782;23.388;2022-08-25T02:35:35;7.45;;;4.85;;
19589;SDS011;12231;42.782;23.388;2022-08-25T02:38:01;10.07;;;5.20;;
19589;SDS011;12231;42.782;23.388;2022-08-25T02:40:27;5.65;;;4.38;;
19589;SDS011;12231;42.782;23.388;2022-08-25T02:42:52;9.82;;;5.05;;
19589;SDS011;12231;42.782;23.388;2022-08-25T02:45:19;5.28;;;4.10;;
19589;SDS011;12231;42.782;23.388;2022-08-25T02:47:45;8.88;;;4.72;;
19589;SDS011;12231;42.782;23.388;2022-08-25T02:50:11;6.57;;;4.50;;
19589;SDS011;12231;42.782;23.388;2022-08-25T02:52:37;5.97;;;4.60;;
19589;SDS011;12231;42.782;23.388;2022-08-25T02:55:04;7.60;;;4.43;;
19589;SDS011;12231;42.782;23.388;2022-08-25T02:57:32;6.65;;;4.78;;
19589;SDS011;12231;42.782;23.388;2022-08-25T02:59:57;8.85;;;4.50;;
19589;SDS011;12231;42.782;23.388;2022-08-25T03:02:23;6.75;;;5.15;;
19589;SDS011;12231;42.782;23.388;2022-08-25T03:04:50;5.38;;;4.63;;
19589;SDS011;12231;42.782;23.388;2022-08-25T03:07:17;7.32;;;4.80;;
19589;SDS011;12231;42.782;23.388;2022-08-25T03:09:43;8.90;;;5.35;;
19589;SDS011;12231;42.782;23.388;2022-08-25T03:12:10;8.73;;;5.70;;
19589;SDS011;12231;42.782;23.388;2022-08-25T03:14:36;8.55;;;4.78;;
19589;SDS011;12231;42.782;23.388;2022-08-25T03:17:03;8.05;;;5.32;;
19589;SDS011;12231;42.782;23.388;2022-08-25T03:19:29;8.98;;;5.25;;
19589;SDS011;12231;42.782;23.388;2022-08-25T03:21:55;7.47;;;4.97;;
19589;SDS011;12231;42.782;23.388;2022-08-25T03:24:22;8.07;;;4.70;;
19589;SDS011;12231;42.782;23.388;2022-08-25T03:26:48;8.55;;;5.07;;
19589;SDS011;12231;42.782;23.388;2022-08-25T03:29:26;5.75;;;4.95;;
19589;SDS011;12231;42.782;23.388;2022-08-25T03:31:54;5.70;;;4.68;;
19589;SDS011;12231;42.782;23.388;2022-08-25T03:34:22;7.97;;;4.88;;
19589;SDS011;12231;42.782;23.388;2022-08-25T03:36:49;8.43;;;4.55;;
19589;SDS011;12231;42.782;23.388;2022-08-25T03:39:16;5.97;;;4.60;;
19589;SDS011;12231;42.782;23.388;2022-08-25T03:41:42;5.68;;;4.50;;
19589;SDS011;12231;42.782;23.388;2022-08-25T03:44:09;7.35;;;5.97;;
19589;SDS011;12231;42.782;23.388;2022-08-25T03:46:39;7.47;;;4.80;;
19589;SDS011;12231;42.782;23.388;2022-08-25T03:49:07;6.95;;;5.65;;
19589;SDS011;12231;42.782;23.388;2022-08-25T03:51:36;9.00;;;6.05;;
19589;SDS011;12231;42.782;23.388;2022-08-25T03:54:07;6.70;;;5.25;;
19589;SDS011;12231;42.782;23.388;2022-08-25T03:56:34;10.63;;;5.43;;
19589;SDS011;12231;42.782;23.388;2022-08-25T03:58:59;9.98;;;6.15;;
19589;SDS011;12231;42.782;23.388;2022-08-25T04:01:25;6.45;;;4.70;;
19589;SDS011;12231;42.782;23.388;2022-08-25T04:03:51;7.85;;;5.47;;
19589;SDS011;12231;42.782;23.388;2022-08-25T04:06:17;5.38;;;4.05;;
19589;SDS011;12231;42.782;23.388;2022-08-25T04:08:43;8.30;;;5.07;;
19589;SDS011;12231;42.782;23.388;2022-08-25T04:11:11;8.35;;;5.13;;
19589;SDS011;12231;42.782;23.388;2022-08-25T04:13:38;7.57;;;5.20;;
19589;SDS011;12231;42.782;23.388;2022-08-25T04:16:10;8.95;;;5.57;;
19589;SDS011;12231;42.782;23.388;2022-08-25T04:18:47;9.55;;;6.05;;
19589;SDS011;12231;42.782;23.388;2022-08-25T04:21:14;9.35;;;5.00;;
19589;SDS011;12231;42.782;23.388;2022-08-25T04:23:42;5.97;;;4.75;;
19589;SDS011;12231;42.782;23.388;2022-08-25T04:26:10;6.60;;;5.28;;
19589;SDS011;12231;42.782;23.388;2022-08-25T04:28:37;9.65;;;5.05;;
19589;SDS011;12231;42.782;23.388;2022-08-25T04:31:06;9.43;;;5.43;;
19589;SDS011;12231;42.782;23.388;2022-08-25T04:33:34;7.32;;;5.18;;
19589;SDS011;12231;42.782;23.388;2022-08-25T04:36:03;7.18;;;5.43;;
19589;SDS011;12231;42.782;23.388;2022-08-25T04:38:30;6.20;;;4.80;;
19589;SDS011;12231;42.782;23.388;2022-08-25T04:40:59;7.13;;;4.78;;
19589;SDS011;12231;42.782;23.388;2022-08-25T04:43:28;6.85;;;4.60;;
19589;SDS011;12231;42.782;23.388;2022-08-25T04:45:54;9.85;;;5.22;;
19589;SDS011;12231;42.782;23.388;2022-08-25T04:48:20;6.97;;;4.32;;
19589;SDS011;12231;42.782;23.388;2022-08-25T04:50:46;6.50;;;4.35;;
19589;SDS011;12231;42.782;23.388;2022-08-25T04:53:12;4.93;;;3.95;;
19589;SDS011;12231;42.782;23.388;2022-08-25T04:55:41;8.30;;;4.70;;
19589;SDS011;12231;42.782;23.388;2022-08-25T04:58:09;8.85;;;4.72;;
19589;SDS011;12231;42.782;23.388;2022-08-25T05:00:36;7.15;;;4.45;;
19589;SDS011;12231;42.782;23.388;2022-08-25T05:03:05;5.93;;;4.75;;
19589;SDS011;12231;42.782;23.388;2022-08-25T05:05:35;8.43;;;4.93;;
19589;SDS011;12231;42.782;23.388;2022-08-25T05:08:03;8.73;;;5.03;;
19589;SDS011;12231;42.782;23.388;2022-08-25T05:10:30;5.60;;;4.65;;
19589;SDS011;12231;42.782;23.388;2022-08-25T05:12:57;8.38;;;4.60;;
19589;SDS011;12231;42.782;23.388;2022-08-25T05:15:24;6.22;;;5.13;;
19589;SDS011;12231;42.782;23.388;2022-08-25T05:18:08;8.85;;;6.10;;
19589;SDS011;12231;42.782;23.388;2022-08-25T05:20:35;7.45;;;4.93;;
19589;SDS011;12231;42.782;23.388;2022-08-25T05:23:01;8.00;;;5.00;;
19589;SDS011;12231;42.782;23.388;2022-08-25T05:25:27;8.00;;;5.15;;
19589;SDS011;12231;42.782;23.388;2022-08-25T05:27:53;6.70;;;5.00;;
19589;SDS011;12231;42.782;23.388;2022-08-25T05:30:18;6.80;;;5.07;;
19589;SDS011;12231;42.782;23.388;2022-08-25T05:32:44;9.45;;;4.60;;
19589;SDS011;12231;42.782;23.388;2022-08-25T05:35:09;6.68;;;5.05;;
19589;SDS011;12231;42.782;23.388;2022-08-25T05:37:35;9.98;;;5.20;;
19589;SDS011;12231;42.782;23.388;2022-08-25T05:40:02;5.95;;;5.05;;
19589;SDS011;12231;42.782;23.388;2022-08-25T05:42:32;8.20;;;5.15;;
19589;SDS011;12231;42.782;23.388;2022-08-25T05:44:58;7.20;;;4.80;;
19589;SDS011;12231;42.782;23.388;2022-08-25T05:47:24;5.60;;;4.50;;
19589;SDS011;12231;42.782;23.388;2022-08-25T05:49:49;10.00;;;5.68;;
19589;SDS011;12231;42.782;23.388;2022-08-25T05:52:15;7.22;;;5.15;;
19589;SDS011;12231;42.782;23.388;2022-08-25T05:54:40;6.85;;;5.28;;
19589;SDS011;12231;42.782;23.388;2022-08-25T05:57:06;9.05;;;5.43;;
19589;SDS011;12231;42.782;23.388;2022-08-25T05:59:32;7.55;;;5.40;;
19589;SDS011;12231;42.782;23.388;2022-08-25T06:01:58;8.75;;;6.03;;
19589;SDS011;12231;42.782;23.388;2022-08-25T06:04:42;7.57;;;5.05;;
19589;SDS011;12231;42.782;23.388;2022-08-25T06:07:07;9.75;;;5.40;;
19589;SDS011;12231;42.782;23.388;2022-08-25T06:09:33;5.70;;;4.97;;
19589;SDS011;12231;42.782;23.388;2022-08-25T06:12:01;6.97;;;4.60;;
19589;SDS011;12231;42.782;23.388;2022-08-25T06:14:26;7.88;;;4.80;;
19589;SDS011;12231;42.782;23.388;2022-08-25T06:16:52;5.43;;;4.93;;
19589;SDS011;12231;42.782;23.388;2022-08-25T06:19:17;6.78;;;4.95;;
19589;SDS011;12231;42.782;23.388;2022-08-25T06:21:43;8.38;;;4.90;;
19589;SDS011;12231;42.782;23.388;2022-08-25T06:24:09;5.60;;;4.63;;
19589;SDS011;12231;42.782;23.388;2022-08-25T06:26:35;9.13;;;5.30;;
19589;SDS011;12231;42.782;23.388;2022-08-25T06:29:01;6.28;;;5.07;;
19589;SDS011;12231;42.782;23.388;2022-08-25T06:31:27;5.18;;;4.10;;
19589;SDS011;12231;42.782;23.388;2022-08-25T06:33:52;5.25;;;4.45;;
19589;SDS011;12231;42.782;23.388;2022-08-25T06:36:18;6.13;;;4.68;;
19589;SDS011;12231;42.782;23.388;2022-08-25T06:38:44;6.55;;;5.18;;
19589;SDS011;12231;42.782;23.388;2022-08-25T06:41:10;8.52;;;4.70;;
19589;SDS011;12231;42.782;23.388;2022-08-25T06:43:37;5.85;;;5.00;;
19589;SDS011;12231;42.782;23.388;2022-08-25T06:46:10;8.73;;;5.15;;
19589;SDS011;12231;42.782;23.388;2022-08-25T06:48:36;4.82;;;4.40;;
19589;SDS011;12231;42.782;23.388;2022-08-25T06:51:09;6.25;;;5.53;;
19589;SDS011;12231;42.782;23.388;2022-08-25T06:53:37;6.68;;;4.80;;
19589;SDS011;12231;42.782;23.388;2022-08-25T06:56:03;7.85;;;4.90;;
19589;SDS011;12231;42.782;23.388;2022-08-25T06:58:30;6.32;;;4.75;;
19589;SDS011;12231;42.782;23.388;2022-08-25T07:00:56;7.47;;;5.10;;
19589;SDS011;12231;42.782;23.388;2022-08-25T07:03:21;5.15;;;4.65;;
19589;SDS011;12231;42.782;23.388;2022-08-25T07:05:53;9.07;;;5.03;;
19589;SDS011;12231;42.782;23.388;2022-08-25T07:08:20;6.85;;;4.78;;
19589;SDS011;12231;42.782;23.388;2022-08-25T07:10:46;8.63;;;5.75;;
19589;SDS011;12231;42.782;23.388;2022-08-25T07:13:13;6.28;;;4.85;;
19589;SDS011;12231;42.782;23.388;2022-08-25T07:15:40;5.22;;;4.72;;
19589;SDS011;12231;42.782;23.388;2022-08-25T07:18:07;5.75;;;5.13;;
19589;SDS011;12231;42.782;23.388;2022-08-25T07:20:34;8.07;;;5.25;;
19589;SDS011;12231;42.782;23.388;2022-08-25T07:22:59;7.63;;;5.45;;
19589;SDS011;12231;42.782;23.388;2022-08-25T07:25:25;7.22;;;4.65;;
19589;SDS011;12231;42.782;23.388;2022-08-25T07:27:51;5.93;;;4.93;;
19589;SDS011;12231;42.782;23.388;2022-08-25T07:30:16;7.38;;;4.90;;
19589;SDS011;12231;42.782;23.388;2022-08-25T07:32:42;7.22;;;4.82;;
19589;SDS011;12231;42.782;23.388;2022-08-25T07:35:08;6.32;;;4.80;;
19589;SDS011;12231;42.782;23.388;2022-08-25T07:37:43;6.75;;;5.00;;
19589;SDS011;12231;42.782;23.388;2022-08-25T07:40:11;9.02;;;5.63;;
19589;SDS011;12231;42.782;23.388;2022-08-25T07:42:58;6.47;;;5.18;;
19589;SDS011;12231;42.782;23.388;2022-08-25T07:45:26;6.20;;;5.10;;
19589;SDS011;12231;42.782;23.388;2022-08-25T07:47:58;5.82;;;5.15;;
19589;SDS011;12231;42.782;23.388;2022-08-25T07:50:31;6.97;;;4.97;;
19589;SDS011;12231;42.782;23.388;2022-08-25T07:52:57;6.25;;;5.65;;
19589;SDS011;12231;42.782;23.388;2022-08-25T07:55:24;5.53;;;4.78;;
19589;SDS011;12231;42.782;23.388;2022-08-25T07:57:51;7.25;;;5.70;;
19589;SDS011;12231;42.782;23.388;2022-08-25T08:00:17;23.00;;;13.38;;
19589;SDS011;12231;42.782;23.388;2022-08-25T08:02:43;23.67;;;16.23;;
19589;SDS011;12231;42.782;23.388;2022-08-25T08:05:09;11.18;;;7.47;;
19589;SDS011;12231;42.782;23.388;2022-08-25T08:07:35;8.30;;;5.80;;
19589;SDS011;12231;42.782;23.388;2022-08-25T08:10:02;7.95;;;4.95;;
19589;SDS011;12231;42.782;23.388;2022-08-25T08:12:33;10.05;;;4.90;;
19589;SDS011;12231;42.782;23.388;2022-08-25T08:14:59;5.13;;;3.95;;
19589;SDS011;12231;42.782;23.388;2022-08-25T08:17:25;6.40;;;4.32;;
19589;SDS011;12231;42.782;23.388;2022-08-25T08:19:51;10.57;;;4.63;;
19589;SDS011;12231;42.782;23.388;2022-08-25T08:22:16;6.82;;;4.25;;
19589;SDS011;12231;42.782;23.388;2022-08-25T08:24:43;6.95;;;4.20;;
19589;SDS011;12231;42.782;23.388;2022-08-25T08:27:09;6.68;;;3.97;;
19589;SDS011;12231;42.782;23.388;2022-08-25T08:29:37;8.48;;;4.50;;
19589;SDS011;12231;42.782;23.388;2022-08-25T08:32:05;4.78;;;3.55;;
19589;SDS011;12231;42.782;23.388;2022-08-25T08:34:31;5.30;;;3.67;;
19589;SDS011;12231;42.782;23.388;2022-08-25T08:36:57;5.63;;;3.90;;
19589;SDS011;12231;42.782;23.388;2022-08-25T08:39:23;7.90;;;3.55;;
19589;SDS011;12231;42.782;23.388;2022-08-25T08:42:05;7.47;;;3.53;;
19589;SDS011;12231;42.782;23.388;2022-08-25T08:47:31;4.85;;;3.33;;
19589;SDS011;12231;42.782;23.388;2022-08-25T08:58:08;7.00;;;3.88;;
19589;SDS011;12231;42.782;23.388;2022-08-25T09:00:39;7.10;;;3.72;;
19589;SDS011;12231;42.782;23.388;2022-08-25T09:03:11;5.80;;;3.35;;
19589;SDS011;12231;42.782;23.388;2022-08-25T09:05:42;8.00;;;3.60;;
19589;SDS011;12231;42.782;23.388;2022-08-25T09:08:11;6.13;;;3.70;;
19589;SDS011;12231;42.782;23.388;2022-08-25T09:19:29;7.65;;;3.28;;
19589;SDS011;12231;42.782;23.388;2022-08-25T09:21:58;5.30;;;3.67;;
19589;SDS011;12231;42.782;23.388;2022-08-25T09:27:15;6.28;;;3.72;;
19589;SDS011;12231;42.782;23.388;2022-08-25T09:32:14;6.43;;;2.90;;
19589;SDS011;12231;42.782;23.388;2022-08-25T09:34:41;7.97;;;3.67;;
19589;SDS011;12231;42.782;23.388;2022-08-25T09:37:08;6.47;;;2.55;;
19589;SDS011;12231;42.782;23.388;2022-08-25T09:39:34;6.15;;;2.30;;
19589;SDS011;12231;42.782;23.388;2022-08-25T09:42:00;2.33;;;1.98;;
19589;SDS011;12231;42.782;23.388;2022-08-25T09:49:50;4.25;;;2.50;;
19589;SDS011;12231;42.782;23.388;2022-08-25T09:52:39;5.57;;;2.55;;
19589;SDS011;12231;42.782;23.388;2022-08-25T10:02:40;5.45;;;2.35;;
19589;SDS011;12231;42.782;23.388;2022-08-25T10:07:48;5.93;;;2.25;;
19589;SDS011;12231;42.782;23.388;2022-08-25T10:10:17;5.32;;;2.30;;
19589;SDS011;12231;42.782;23.388;2022-08-25T10:12:47;3.05;;;2.28;;
19589;SDS011;12231;42.782;23.388;2022-08-25T10:15:20;5.88;;;2.38;;
19589;SDS011;12231;42.782;23.388;2022-08-25T10:17:48;6.35;;;2.45;;
19589;SDS011;12231;42.782;23.388;2022-08-25T10:20:26;3.22;;;2.13;;
19589;SDS011;12231;42.782;23.388;2022-08-25T10:22:54;3.58;;;2.40;;
19589;SDS011;12231;42.782;23.388;2022-08-25T10:25:35;5.40;;;3.65;;
19589;SDS011;12231;42.782;23.388;2022-08-25T10:28:31;4.55;;;2.53;;
19589;SDS011;12231;42.782;23.388;2022-08-25T10:38:57;5.57;;;2.50;;
19589;SDS011;12231;42.782;23.388;2022-08-25T10:46:41;4.10;;;1.95;;
19589;SDS011;12231;42.782;23.388;2022-08-25T10:55:19;6.90;;;2.92;;
19589;SDS011;12231;42.782;23.388;2022-08-25T11:00:26;6.05;;;2.47;;
19589;SDS011;12231;42.782;23.388;2022-08-25T11:06:16;4.05;;;2.40;;
19589;SDS011;12231;42.782;23.388;2022-08-25T11:08:59;6.13;;;2.80;;
19589;SDS011;12231;42.782;23.388;2022-08-25T11:11:46;7.40;;;2.78;;
19589;SDS011;12231;42.782;23.388;2022-08-25T11:14:24;2.83;;;2.10;;
19589;SDS011;12231;42.782;23.388;2022-08-25T11:17:05;4.00;;;2.05;;
19589;SDS011;12231;42.782;23.388;2022-08-25T11:19:42;4.05;;;2.00;;
19589;SDS011;12231;42.782;23.388;2022-08-25T11:22:13;2.58;;;2.20;;
19589;SDS011;12231;42.782;23.388;2022-08-25T11:27:37;4.25;;;2.55;;
19589;SDS011;12231;42.782;23.388;2022-08-25T11:30:13;5.68;;;2.13;;
19589;SDS011;12231;42.782;23.388;2022-08-25T11:32:43;3.80;;;2.28;;
19589;SDS011;12231;42.782;23.388;2022-08-25T11:35:13;5.18;;;2.22;;
19589;SDS011;12231;42.782;23.388;2022-08-25T11:37:52;4.82;;;2.00;;
19589;SDS011;12231;42.782;23.388;2022-08-25T11:40:33;3.67;;;2.30;;
19589;SDS011;12231;42.782;23.388;2022-08-25T11:48:43;4.72;;;2.05;;
19589;SDS011;12231;42.782;23.388;2022-08-25T11:51:28;3.83;;;2.00;;
19589;SDS011;12231;42.782;23.388;2022-08-25T11:56:53;3.78;;;2.17;;
19589;SDS011;12231;42.782;23.388;2022-08-25T12:05:01;4.85;;;2.00;;
19589;SDS011;12231;42.782;23.388;2022-08-25T12:13:25;4.28;;;2.35;;
19589;SDS011;12231;42.782;23.388;2022-08-25T12:21:54;2.92;;;2.10;;
19589;SDS011;12231;42.782;23.388;2022-08-25T12:27:06;5.85;;;2.50;;
19589;SDS011;12231;42.782;23.388;2022-08-25T12:29:44;4.53;;;2.05;;
19589;SDS011;12231;42.782;23.388;2022-08-25T12:40:26;4.10;;;1.90;;
19589;SDS011;12231;42.782;23.388;2022-08-25T12:43:02;2.85;;;2.20;;
19589;SDS011;12231;42.782;23.388;2022-08-25T12:45:38;3.28;;;2.28;;
19589;SDS011;12231;42.782;23.388;2022-08-25T12:50:58;3.70;;;2.25;;
19589;SDS011;12231;42.782;23.388;2022-08-25T12:53:49;3.60;;;2.03;;
19589;SDS011;12231;42.782;23.388;2022-08-25T12:56:27;4.30;;;2.10;;
19589;SDS011;12231;42.782;23.388;2022-08-25T13:01:47;6.25;;;2.25;;
19589;SDS011;12231;42.782;23.388;2022-08-25T13:15:43;2.55;;;1.88;;
19589;SDS011;12231;42.782;23.388;2022-08-25T13:20:39;6.03;;;2.45;;
19589;SDS011;12231;42.782;23.388;2022-08-25T13:23:04;6.45;;;2.38;;
19589;SDS011;12231;42.782;23.388;2022-08-25T13:25:30;4.03;;;2.53;;
19589;SDS011;12231;42.782;23.388;2022-08-25T13:27:58;4.53;;;1.90;;
19589;SDS011;12231;42.782;23.388;2022-08-25T13:30:31;3.40;;;2.20;;
19589;SDS011;12231;42.782;23.388;2022-08-25T13:33:14;2.90;;;2.20;;
19589;SDS011;12231;42.782;23.388;2022-08-25T13:35:45;3.55;;;2.35;;
19589;SDS011;12231;42.782;23.388;2022-08-25T13:38:13;5.05;;;2.35;;
19589;SDS011;12231;42.782;23.388;2022-08-25T13:40:40;4.85;;;2.10;;
19589;SDS011;12231;42.782;23.388;2022-08-25T13:43:08;2.40;;;2.03;;
19589;SDS011;12231;42.782;23.388;2022-08-25T13:45:39;4.35;;;2.13;;
19589;SDS011;12231;42.782;23.388;2022-08-25T13:48:10;3.10;;;2.20;;
19589;SDS011;12231;42.782;23.388;2022-08-25T13:50:39;3.25;;;2.00;;
19589;SDS011;12231;42.782;23.388;2022-08-25T13:53:15;4.93;;;2.17;;
19589;SDS011;12231;42.782;23.388;2022-08-25T13:55:50;4.47;;;2.13;;
19589;SDS011;12231;42.782;23.388;2022-08-25T14:03:35;4.55;;;2.70;;
19589;SDS011;12231;42.782;23.388;2022-08-25T14:06:08;4.40;;;2.42;;
19589;SDS011;12231;42.782;23.388;2022-08-25T14:08:37;5.63;;;2.45;;
19589;SDS011;12231;42.782;23.388;2022-08-25T14:14:08;5.78;;;2.42;;
19589;SDS011;12231;42.782;23.388;2022-08-25T14:16:46;6.05;;;2.58;;
19589;SDS011;12231;42.782;23.388;2022-08-25T14:19:34;6.90;;;2.42;;
19589;SDS011;12231;42.782;23.388;2022-08-25T14:22:08;4.95;;;2.13;;
19589;SDS011;12231;42.782;23.388;2022-08-25T14:24:34;6.28;;;2.10;;
19589;SDS011;12231;42.782;23.388;2022-08-25T14:27:00;2.95;;;2.13;;
19589;SDS011;12231;42.782;23.388;2022-08-25T14:29:26;3.08;;;2.28;;
19589;SDS011;12231;42.782;23.388;2022-08-25T14:31:52;4.25;;;2.28;;
19589;SDS011;12231;42.782;23.388;2022-08-25T14:34:22;5.25;;;2.50;;
19589;SDS011;12231;42.782;23.388;2022-08-25T14:36:50;2.50;;;2.30;;
19589;SDS011;12231;42.782;23.388;2022-08-25T14:39:16;4.15;;;2.20;;
19589;SDS011;12231;42.782;23.388;2022-08-25T14:41:42;5.60;;;2.38;;
19589;SDS011;12231;42.782;23.388;2022-08-25T14:44:10;4.82;;;2.15;;
19589;SDS011;12231;42.782;23.388;2022-08-25T14:46:39;4.60;;;2.60;;
19589;SDS011;12231;42.782;23.388;2022-08-25T14:49:08;4.80;;;3.25;;
19589;SDS011;12231;42.782;23.388;2022-08-25T14:51:37;4.45;;;2.45;;
19589;SDS011;12231;42.782;23.388;2022-08-25T14:54:05;7.18;;;4.97;;
19589;SDS011;12231;42.782;23.388;2022-08-25T14:56:33;2.53;;;2.33;;
19589;SDS011;12231;42.782;23.388;2022-08-25T14:58:59;8.10;;;2.30;;
19589;SDS011;12231;42.782;23.388;2022-08-25T15:01:25;4.68;;;2.55;;
19589;SDS011;12231;42.782;23.388;2022-08-25T15:03:53;5.20;;;2.40;;
19589;SDS011;12231;42.782;23.388;2022-08-25T15:06:21;7.25;;;2.20;;
19589;SDS011;12231;42.782;23.388;2022-08-25T15:08:47;4.25;;;2.40;;
19589;SDS011;12231;42.782;23.388;2022-08-25T15:11:31;2.55;;;2.20;;
19589;SDS011;12231;42.782;23.388;2022-08-25T15:13:57;2.58;;;2.30;;
19589;SDS011;12231;42.782;23.388;2022-08-25T15:16:30;4.47;;;2.13;;
19589;SDS011;12231;42.782;23.388;2022-08-25T15:19:08;5.40;;;2.50;;
19589;SDS011;12231;42.782;23.388;2022-08-25T15:21:38;3.60;;;2.10;;
19589;SDS011;12231;42.782;23.388;2022-08-25T15:24:05;5.10;;;2.50;;
19589;SDS011;12231;42.782;23.388;2022-08-25T15:26:37;4.00;;;2.30;;
19589;SDS011;12231;42.782;23.388;2022-08-25T15:29:07;5.75;;;2.00;;
19589;SDS011;12231;42.782;23.388;2022-08-25T15:31:33;9.27;;;2.70;;
19589;SDS011;12231;42.782;23.388;2022-08-25T15:33:58;6.28;;;2.22;;
19589;SDS011;12231;42.782;23.388;2022-08-25T15:36:24;3.58;;;2.30;;
19589;SDS011;12231;42.782;23.388;2022-08-25T15:38:50;4.32;;;2.50;;
19589;SDS011;12231;42.782;23.388;2022-08-25T15:41:17;8.40;;;2.38;;
19589;SDS011;12231;42.782;23.388;2022-08-25T15:43:42;8.00;;;2.17;;
19589;SDS011;12231;42.782;23.388;2022-08-25T15:46:08;7.78;;;2.80;;
19589;SDS011;12231;42.782;23.388;2022-08-25T15:48:45;4.30;;;2.53;;
19589;SDS011;12231;42.782;23.388;2022-08-25T15:51:11;2.50;;;2.30;;
19589;SDS011;12231;42.782;23.388;2022-08-25T15:53:38;7.22;;;2.65;;
19589;SDS011;12231;42.782;23.388;2022-08-25T15:56:04;6.57;;;2.78;;
19589;SDS011;12231;42.782;23.388;2022-08-25T15:58:30;4.53;;;2.17;;
19589;SDS011;12231;42.782;23.388;2022-08-25T16:00:56;4.60;;;2.20;;
19589;SDS011;12231;42.782;23.388;2022-08-25T16:03:22;3.05;;;2.30;;
19589;SDS011;12231;42.782;23.388;2022-08-25T16:05:47;6.55;;;2.47;;
19589;SDS011;12231;42.782;23.388;2022-08-25T16:08:13;4.78;;;2.38;;
19589;SDS011;12231;42.782;23.388;2022-08-25T16:10:40;3.50;;;2.40;;
19589;SDS011;12231;42.782;23.388;2022-08-25T16:13:07;5.30;;;3.30;;
19589;SDS011;12231;42.782;23.388;2022-08-25T16:15:33;4.07;;;2.92;;
19589;SDS011;12231;42.782;23.388;2022-08-25T16:18:00;4.75;;;3.80;;
19589;SDS011;12231;42.782;23.388;2022-08-25T16:20:27;4.63;;;2.35;;
19589;SDS011;12231;42.782;23.388;2022-08-25T16:22:54;5.68;;;2.78;;
19589;SDS011;12231;42.782;23.388;2022-08-25T16:25:20;3.42;;;2.38;;
19589;SDS011;12231;42.782;23.388;2022-08-25T16:27:45;3.67;;;2.70;;
19589;SDS011;12231;42.782;23.388;2022-08-25T16:30:11;7.95;;;3.00;;
19589;SDS011;12231;42.782;23.388;2022-08-25T16:32:37;4.82;;;2.78;;
19589;SDS011;12231;42.782;23.388;2022-08-25T16:35:04;4.28;;;2.80;;
19589;SDS011;12231;42.782;23.388;2022-08-25T16:37:33;5.25;;;2.50;;
19589;SDS011;12231;42.782;23.388;2022-08-25T16:40:00;7.72;;;3.05;;
19589;SDS011;12231;42.782;23.388;2022-08-25T16:42:26;7.90;;;3.00;;
19589;SDS011;12231;42.782;23.388;2022-08-25T16:44:51;3.92;;;2.72;;
19589;SDS011;12231;42.782;23.388;2022-08-25T16:47:18;3.17;;;2.25;;
19589;SDS011;12231;42.782;23.388;2022-08-25T16:49:43;7.70;;;2.95;;
19589;SDS011;12231;42.782;23.388;2022-08-25T16:52:09;8.57;;;3.10;;
19589;SDS011;12231;42.782;23.388;2022-08-25T16:54:53;6.93;;;2.97;;
19589;SDS011;12231;42.782;23.388;2022-08-25T16:57:40;5.50;;;2.80;;
19589;SDS011;12231;42.782;23.388;2022-08-25T17:00:12;4.50;;;2.35;;